createdAt,value
2023-02-12T00:01:11.373Z,30.65
2023-02-12T00:03:39.595Z,28.45
2023-02-12T00:06:08.020Z,28.13
2023-02-12T00:08:35.747Z,29.05
2023-02-12T00:11:16.723Z,28.67
2023-02-12T00:13:44.066Z,29.25
2023-02-12T00:16:14.743Z,29.80
2023-02-12T00:18:42.424Z,28.33
2023-02-12T00:21:09.726Z,27.38
2023-02-12T00:23:37.972Z,27.70
2023-02-12T00:26:09.545Z,29.20
2023-02-12T00:28:38.219Z,27.02
2023-02-12T00:31:13.573Z,27.15
2023-02-12T00:36:09.090Z,27.65
2023-02-12T00:38:36.309Z,28.25
2023-02-12T00:41:03.637Z,28.67
2023-02-12T00:43:30.873Z,28.13
2023-02-12T00:45:58.705Z,27.75
2023-02-12T00:48:27.412Z,28.67
2023-02-12T00:50:54.403Z,29.83
2023-02-12T00:53:21.617Z,28.45
2023-02-12T00:55:48.724Z,28.08
2023-02-12T00:58:18.887Z,28.20
2023-02-12T01:00:46.560Z,28.10
2023-02-12T01:03:13.705Z,27.80
2023-02-12T01:05:41.143Z,30.17
2023-02-12T01:08:08.159Z,29.77
2023-02-12T01:10:35.150Z,29.75
2023-02-12T01:13:02.380Z,28.75
2023-02-12T01:15:29.577Z,27.58
2023-02-12T01:17:57.177Z,29.02
2023-02-12T01:20:25.483Z,29.58
2023-02-12T01:22:53.268Z,29.08
2023-02-12T01:25:20.879Z,28.95
2023-02-12T01:27:48.170Z,30.55
2023-02-12T01:30:16.707Z,28.83
2023-02-12T01:32:44.433Z,28.08
2023-02-12T01:35:12.192Z,28.58
2023-02-12T01:37:41.554Z,28.48
2023-02-12T01:40:10.623Z,27.90
2023-02-12T01:42:37.606Z,27.02
2023-02-12T01:45:13.667Z,27.05
2023-02-12T01:47:45.505Z,27.70
2023-02-12T01:50:17.574Z,29.48
2023-02-12T01:52:48.940Z,30.55
2023-02-12T01:55:16.617Z,28.70
2023-02-12T01:57:46.580Z,29.52
2023-02-12T02:00:19.902Z,26.67
2023-02-12T02:02:51.468Z,27.02
2023-02-12T02:05:35.579Z,27.00
2023-02-12T02:08:02.811Z,28.85
2023-02-12T02:10:31.306Z,26.48
2023-02-12T02:13:17.457Z,27.40
2023-02-12T02:15:49.160Z,25.98
2023-02-12T02:18:55.915Z,27.05
2023-02-12T02:24:30.941Z,25.55
2023-02-12T02:27:16.402Z,25.27
2023-02-12T02:29:43.516Z,26.75
2023-02-12T02:32:23.433Z,26.50
2023-02-12T02:35:00.136Z,26.55
2023-02-12T02:37:30.412Z,27.05
2023-02-12T02:40:11.716Z,27.23
2023-02-12T02:42:52.484Z,27.50
2023-02-12T02:45:43.315Z,26.65
2023-02-12T02:48:20.191Z,26.55
2023-02-12T02:50:52.921Z,26.60
2023-02-12T02:53:31.602Z,26.52
2023-02-12T02:56:02.363Z,26.33
2023-02-12T02:58:36.466Z,25.67
2023-02-12T03:01:10.065Z,26.65
2023-02-12T03:03:48.784Z,28.23
2023-02-12T03:06:25.188Z,27.15
2023-02-12T03:09:05.722Z,27.65
2023-02-12T03:11:34.757Z,28.63
2023-02-12T03:14:14.146Z,26.77
2023-02-12T03:16:58.569Z,29.45
2023-02-12T03:19:29.694Z,27.63
2023-02-12T03:22:08.629Z,29.08
2023-02-12T03:25:09.982Z,28.83
2023-02-12T03:27:41.811Z,26.92
2023-02-12T03:30:10.394Z,28.17
2023-02-12T03:33:00.856Z,26.85
2023-02-12T03:35:57.788Z,27.25
2023-02-12T03:38:46.979Z,27.52
2023-02-12T03:41:17.202Z,28.13
2023-02-12T03:43:55.105Z,26.67
2023-02-12T03:46:47.259Z,27.23
2023-02-12T03:49:54.075Z,27.95
2023-02-12T03:52:21.974Z,26.90
2023-02-12T03:54:49.073Z,27.00
2023-02-12T03:57:27.710Z,26.55
2023-02-12T03:59:54.798Z,26.88
2023-02-12T04:02:21.835Z,27.40
2023-02-12T04:04:49.453Z,27.17
2023-02-12T04:07:17.587Z,28.02
2023-02-12T04:09:44.771Z,27.33
2023-02-12T04:12:31.055Z,26.05
2023-02-12T04:15:13.131Z,28.83
2023-02-12T04:18:12.949Z,27.42
2023-02-12T04:21:00.399Z,27.77
2023-02-12T04:23:48.701Z,25.88
2023-02-12T04:26:39.678Z,26.95
2023-02-12T04:29:34.212Z,28.48
2023-02-12T04:32:33.791Z,28.23
2023-02-12T04:35:24.016Z,26.02
2023-02-12T04:38:25.496Z,27.88
2023-02-12T04:40:53.725Z,27.30
2023-02-12T04:43:37.708Z,27.60
2023-02-12T04:46:06.770Z,26.85
2023-02-12T04:48:37.103Z,26.63
2023-02-12T04:51:04.429Z,27.42
2023-02-12T04:53:31.542Z,25.95
2023-02-12T04:55:58.686Z,27.58
2023-02-12T04:58:25.608Z,26.90
2023-02-12T05:00:52.635Z,25.20
2023-02-12T05:03:19.617Z,24.33
2023-02-12T05:05:46.659Z,27.13
2023-02-12T05:08:13.653Z,26.40
2023-02-12T05:10:40.685Z,27.67
2023-02-12T05:13:07.599Z,25.65
2023-02-12T05:15:34.840Z,26.35
2023-02-12T05:18:01.835Z,25.75
2023-02-12T05:20:28.929Z,25.92
2023-02-12T05:22:56.180Z,26.92
2023-02-12T05:25:23.365Z,26.98
2023-02-12T05:27:50.360Z,27.17
2023-02-12T05:30:17.610Z,26.65
2023-02-12T05:32:44.471Z,28.00
2023-02-12T05:35:11.779Z,24.15
2023-02-12T05:37:38.962Z,27.30
2023-02-12T05:40:07.161Z,25.38
2023-02-12T05:42:34.168Z,26.20
2023-02-12T05:45:01.543Z,25.70
2023-02-12T05:47:28.541Z,26.10
2023-02-12T05:49:55.605Z,25.40
2023-02-12T05:52:22.583Z,24.90
2023-02-12T05:54:50.672Z,25.73
2023-02-12T05:57:17.791Z,24.58
2023-02-12T05:59:44.838Z,24.70
2023-02-12T06:02:11.906Z,24.92
2023-02-12T06:04:39.206Z,25.40
2023-02-12T06:07:07.402Z,23.92
2023-02-12T06:09:35.357Z,25.50
2023-02-12T06:12:02.498Z,24.48
2023-02-12T06:14:31.908Z,26.77
2023-02-12T06:16:59.183Z,25.17
2023-02-12T06:19:26.230Z,25.58
2023-02-12T06:21:53.199Z,24.83
2023-02-12T06:24:20.326Z,24.67
2023-02-12T06:26:50.788Z,26.67
2023-02-12T06:29:19.238Z,25.00
2023-02-12T06:31:46.712Z,26.38
2023-02-12T06:34:16.815Z,24.63
2023-02-12T06:36:45.998Z,25.33
2023-02-12T06:39:15.629Z,25.65
2023-02-12T06:41:44.080Z,24.27
2023-02-12T06:44:12.443Z,25.50
2023-02-12T06:46:39.570Z,24.08
2023-02-12T06:49:07.319Z,24.40
2023-02-12T06:51:36.526Z,24.67
2023-02-12T06:54:03.840Z,24.00
2023-02-12T06:56:30.718Z,23.95
2023-02-12T06:59:02.015Z,23.80
2023-02-12T07:01:30.640Z,23.20
2023-02-12T07:04:02.973Z,24.15
2023-02-12T07:06:32.069Z,23.40
2023-02-12T07:08:59.554Z,24.30
2023-02-12T07:11:29.079Z,25.45
2023-02-12T07:13:56.396Z,23.75
2023-02-12T07:16:23.717Z,24.27
2023-02-12T07:18:51.305Z,24.65
2023-02-12T07:21:19.460Z,23.50
2023-02-12T07:23:50.868Z,22.95
2023-02-12T07:26:19.310Z,24.40
2023-02-12T07:28:46.272Z,24.48
2023-02-12T07:31:21.929Z,24.27
2023-02-12T07:33:50.032Z,23.65
2023-02-12T07:36:20.146Z,23.55
2023-02-12T07:38:47.747Z,22.88
2023-02-12T07:41:20.582Z,24.13
2023-02-12T07:43:50.072Z,23.85
2023-02-12T07:46:30.181Z,24.05
2023-02-12T07:48:59.400Z,23.92
2023-02-12T07:51:27.931Z,21.90
2023-02-12T07:53:55.521Z,23.15
2023-02-12T07:56:25.308Z,23.65
2023-02-12T07:58:53.733Z,22.83
2023-02-12T08:01:35.786Z,22.20
2023-02-12T08:04:05.651Z,22.75
2023-02-12T08:06:35.041Z,21.98
2023-02-12T08:09:04.918Z,23.45
2023-02-12T08:11:32.485Z,22.75
2023-02-12T08:14:00.215Z,21.52
2023-02-12T08:16:28.930Z,23.20
2023-02-12T08:19:02.362Z,22.17
2023-02-12T08:21:34.846Z,21.75
2023-02-12T08:24:02.358Z,22.58
2023-02-12T08:26:32.007Z,23.58
2023-02-12T08:29:12.107Z,21.80
2023-02-12T08:31:41.816Z,22.13
2023-02-12T08:34:17.903Z,22.45
2023-02-12T08:36:46.269Z,22.38
2023-02-12T08:39:13.580Z,23.83
2023-02-12T08:41:42.449Z,21.50
2023-02-12T08:44:10.474Z,22.77
2023-02-12T08:46:40.067Z,22.13
2023-02-12T08:49:14.437Z,22.13
2023-02-12T08:51:45.456Z,21.98
2023-02-12T08:54:14.864Z,21.98
2023-02-12T08:56:42.270Z,23.05
2023-02-12T08:59:10.992Z,23.70
2023-02-12T09:01:39.523Z,22.05
2023-02-12T09:04:07.542Z,21.70
2023-02-12T09:06:35.855Z,22.00
2023-02-12T09:09:05.738Z,21.15
2023-02-12T09:11:35.355Z,22.05
2023-02-12T09:14:05.584Z,21.50
2023-02-12T09:16:36.446Z,22.10
2023-02-12T09:19:04.393Z,20.75
2023-02-12T09:21:31.565Z,22.45
2023-02-12T09:23:58.642Z,20.80
2023-02-12T09:26:26.322Z,21.02
2023-02-12T09:28:54.872Z,21.65
2023-02-12T09:31:27.925Z,20.45
2023-02-12T09:33:59.265Z,22.13
2023-02-12T09:36:26.391Z,20.60
2023-02-12T09:38:54.611Z,20.77
2023-02-12T09:41:33.620Z,20.73
2023-02-12T09:44:31.203Z,20.77
2023-02-12T09:47:32.631Z,21.55
2023-02-12T09:50:46.468Z,20.90
2023-02-12T09:53:17.743Z,21.25
2023-02-12T09:55:46.212Z,20.40
2023-02-12T09:58:29.657Z,19.63
2023-02-12T10:00:57.256Z,19.83
2023-02-12T10:03:33.575Z,20.55
2023-02-12T10:06:07.788Z,20.42
2023-02-12T10:08:52.566Z,20.50
2023-02-12T10:11:22.447Z,20.25
2023-02-12T10:14:10.772Z,21.25
2023-02-12T10:16:43.970Z,19.77
2023-02-12T10:19:23.192Z,20.42
2023-02-12T10:22:05.242Z,22.65
2023-02-12T10:25:09.226Z,24.77
2023-02-12T10:27:44.197Z,29.45
2023-02-12T10:30:24.425Z,21.27
2023-02-12T10:32:59.115Z,23.65
2023-02-12T10:35:26.950Z,25.45
2023-02-12T10:38:16.152Z,23.77
2023-02-12T10:40:45.394Z,22.23
2023-02-12T10:43:15.480Z,22.13
2023-02-12T10:45:44.753Z,21.70
2023-02-12T10:48:11.760Z,22.42
2023-02-12T10:50:50.004Z,22.65
2023-02-12T10:53:25.815Z,23.73
2023-02-12T10:56:25.806Z,23.38
2023-02-12T10:58:57.704Z,25.08
2023-02-12T11:01:34.924Z,25.10
2023-02-12T11:04:20.471Z,25.45
2023-02-12T11:07:17.506Z,26.85
2023-02-12T11:09:50.230Z,26.35
2023-02-12T11:12:43.608Z,25.65
2023-02-12T11:15:15.584Z,25.15
2023-02-12T11:17:45.220Z,25.75
2023-02-12T11:20:18.658Z,26.20
2023-02-12T11:23:01.130Z,26.55
2023-02-12T11:25:34.937Z,27.60
2023-02-12T11:28:04.083Z,28.77
2023-02-12T11:30:32.165Z,26.70
2023-02-12T11:33:24.713Z,26.85
2023-02-12T11:36:19.836Z,26.58
2023-02-12T11:38:56.191Z,25.77
2023-02-12T11:41:41.095Z,24.38
2023-02-12T11:44:39.407Z,24.63
2023-02-12T11:47:16.912Z,26.48
2023-02-12T11:49:52.203Z,25.90
2023-02-12T11:52:25.715Z,39.72
2023-02-12T11:54:56.837Z,25.88
2023-02-12T11:57:47.404Z,23.80
2023-02-12T12:00:23.293Z,25.02
2023-02-12T12:03:19.461Z,24.13
2023-02-12T12:05:51.215Z,25.10
2023-02-12T12:26:40.646Z,23.90
2023-02-12T12:33:42.707Z,22.67
2023-02-12T12:36:49.975Z,20.80
2023-02-12T12:39:55.310Z,21.38
2023-02-12T12:42:50.606Z,21.63
2023-02-12T12:45:56.247Z,20.15
2023-02-12T12:48:42.888Z,20.83
2023-02-12T12:51:53.126Z,21.13
2023-02-12T12:54:40.833Z,19.85
2023-02-12T12:57:45.654Z,19.98
2023-02-12T13:00:32.853Z,21.98
2023-02-12T13:03:19.083Z,19.13
2023-02-12T13:09:28.741Z,30.15
2023-02-12T13:12:40.924Z,21.80
2023-02-12T13:15:26.024Z,20.85
2023-02-12T13:18:20.948Z,20.63
2023-02-12T13:20:58.067Z,20.17
2023-02-12T13:23:42.752Z,20.60
2023-02-12T13:26:24.215Z,20.05
2023-02-12T13:29:12.337Z,20.85
2023-02-12T13:31:52.149Z,20.33
2023-02-12T13:34:20.961Z,21.50
2023-02-12T13:36:49.680Z,32.20
2023-02-12T13:39:43.397Z,21.35
2023-02-12T13:42:36.524Z,21.38
2023-02-12T13:45:24.816Z,21.35
2023-02-12T13:48:03.246Z,22.45
2023-02-12T13:51:00.093Z,22.15
2023-02-12T13:53:46.579Z,23.35
2023-02-12T13:56:31.740Z,23.45
2023-02-12T13:59:00.898Z,23.48
2023-02-12T14:01:47.363Z,22.67
2023-02-12T14:04:21.398Z,24.67
2023-02-12T14:07:06.870Z,23.48
2023-02-12T14:09:45.737Z,24.27
2023-02-12T14:12:26.417Z,23.58
2023-02-12T14:15:03.576Z,24.02
2023-02-12T14:17:33.383Z,24.10
2023-02-12T14:20:30.004Z,23.55
2023-02-12T14:23:21.157Z,23.83
2023-02-12T14:26:00.989Z,23.67
2023-02-12T14:28:59.202Z,22.88
2023-02-12T14:31:41.106Z,22.73
2023-02-12T14:34:08.529Z,23.52
2023-02-12T14:36:39.192Z,22.67
2023-02-12T14:39:30.129Z,20.88
2023-02-12T14:42:17.140Z,21.42
2023-02-12T14:44:59.220Z,21.38
2023-02-12T14:47:29.245Z,23.20
2023-02-12T14:50:02.688Z,23.45
2023-02-12T14:52:39.887Z,24.60
2023-02-12T14:55:20.898Z,24.40
2023-02-12T14:57:48.380Z,24.92
2023-02-12T15:00:27.771Z,26.58
2023-02-12T15:02:58.895Z,26.23
2023-02-12T15:05:34.868Z,27.95
2023-02-12T15:08:14.131Z,29.30
2023-02-12T15:10:53.122Z,27.30
2023-02-12T15:13:30.297Z,27.05
2023-02-12T15:16:08.549Z,29.48
2023-02-12T15:18:41.860Z,28.88
2023-02-12T15:21:24.300Z,31.73
2023-02-12T15:24:25.425Z,31.25
2023-02-12T15:26:55.184Z,31.05
2023-02-12T15:29:29.797Z,31.35
2023-02-12T15:32:01.866Z,31.17
2023-02-12T15:34:35.361Z,33.78
2023-02-12T15:37:04.658Z,33.65
2023-02-12T15:39:41.156Z,32.97
2023-02-12T15:42:34.364Z,34.53
2023-02-12T15:45:10.899Z,34.25
2023-02-12T15:47:38.452Z,33.08
2023-02-12T15:50:07.412Z,32.78
2023-02-12T15:52:38.465Z,33.05
2023-02-12T15:55:14.599Z,32.28
2023-02-12T15:57:42.614Z,34.67
2023-02-12T16:00:16.943Z,34.90
2023-02-12T16:02:53.784Z,31.80
2023-02-12T16:05:22.557Z,35.20
2023-02-12T16:07:50.333Z,36.25
2023-02-12T16:10:19.788Z,36.10
2023-02-12T16:12:50.431Z,31.70
2023-02-12T16:15:35.318Z,33.97
2023-02-12T16:18:05.372Z,36.03
2023-02-12T16:20:33.910Z,34.40
2023-02-12T16:23:06.633Z,32.47
2023-02-12T16:25:35.272Z,32.00
2023-02-12T16:28:30.637Z,34.78
2023-02-12T16:31:09.617Z,33.33
2023-02-12T16:33:55.089Z,34.08
2023-02-12T16:36:25.214Z,32.30
2023-02-12T16:38:54.635Z,31.20
2023-02-12T16:41:27.346Z,32.92
2023-02-12T16:43:54.486Z,33.22
2023-02-12T16:46:24.165Z,33.00
2023-02-12T16:48:54.566Z,33.08
2023-02-12T16:51:32.837Z,32.10
2023-02-12T16:54:03.112Z,31.30
2023-02-12T16:56:41.140Z,32.58
2023-02-12T16:59:09.498Z,33.85
2023-02-12T17:01:38.848Z,34.03
2023-02-12T17:04:09.427Z,34.90
2023-02-12T17:06:36.406Z,34.83
2023-02-12T17:09:03.388Z,34.55
2023-02-12T17:11:30.483Z,35.08
2023-02-12T17:13:58.101Z,37.47
2023-02-12T17:16:31.268Z,59.30
2023-02-12T17:19:00.042Z,56.17
2023-02-12T17:21:38.490Z,47.08
2023-02-12T17:24:27.727Z,40.40
2023-02-12T17:26:55.608Z,36.25
2023-02-12T17:29:24.311Z,36.20
2023-02-12T17:31:56.366Z,42.60
2023-02-12T17:34:24.479Z,41.58
2023-02-12T17:36:55.324Z,41.25
2023-02-12T17:39:22.466Z,35.35
2023-02-12T17:41:49.990Z,34.28
2023-02-12T17:44:17.790Z,32.55
2023-02-12T17:46:45.483Z,34.20
2023-02-12T17:49:13.530Z,37.92
2023-02-12T17:51:41.082Z,36.13
2023-02-12T17:54:08.662Z,41.05
2023-02-12T17:56:35.664Z,37.28
2023-02-12T17:59:06.742Z,63.53
2023-02-12T18:01:35.571Z,118.80
2023-02-12T18:04:03.289Z,120.55
2023-02-12T18:06:31.658Z,65.68
2023-02-12T18:08:59.781Z,43.13
2023-02-12T18:11:27.828Z,44.45
2023-02-12T18:13:56.938Z,39.78
2023-02-12T18:16:27.833Z,37.10
2023-02-12T18:18:55.515Z,36.85
2023-02-12T18:21:24.854Z,35.65
2023-02-12T18:23:53.722Z,38.55
2023-02-12T18:26:21.724Z,34.67
2023-02-12T18:28:49.595Z,33.30
2023-02-12T18:31:19.698Z,36.58
2023-02-12T18:33:48.515Z,35.38
2023-02-12T18:36:18.680Z,34.28
2023-02-12T18:38:49.367Z,41.05
2023-02-12T18:41:22.576Z,40.38
2023-02-12T18:43:58.800Z,42.83
2023-02-12T18:46:29.346Z,48.60
2023-02-12T18:48:56.689Z,69.53
2023-02-12T18:51:26.568Z,105.60
2023-02-12T18:54:05.283Z,48.00
2023-02-12T18:56:36.639Z,43.42
2023-02-12T18:59:05.619Z,37.75
2023-02-12T19:01:34.610Z,35.08
2023-02-12T19:04:04.695Z,37.83
2023-02-12T19:06:33.526Z,39.33
2023-02-12T19:09:04.149Z,35.45
2023-02-12T19:11:31.802Z,35.47
2023-02-12T19:13:59.769Z,35.13
2023-02-12T19:16:27.064Z,35.00
2023-02-12T19:18:56.360Z,35.03
2023-02-12T19:21:26.361Z,36.33
2023-02-12T19:23:59.988Z,35.90
2023-02-12T19:26:29.189Z,45.75
2023-02-12T19:28:57.522Z,40.10
2023-02-12T19:31:35.179Z,39.65
2023-02-12T19:34:05.259Z,41.45
2023-02-12T19:36:35.645Z,38.80
2023-02-12T19:39:05.043Z,42.70
2023-02-12T19:41:33.335Z,39.60
2023-02-12T19:44:02.167Z,40.58
2023-02-12T19:46:31.029Z,36.15
2023-02-12T19:49:03.330Z,39.75
2023-02-12T19:51:32.498Z,40.70
2023-02-12T19:54:07.099Z,38.05
2023-02-12T19:56:37.996Z,42.23
2023-02-12T19:59:07.477Z,35.33
2023-02-12T20:01:35.074Z,31.77
2023-02-12T20:04:02.679Z,29.77
2023-02-12T20:06:33.777Z,30.80
2023-02-12T20:09:01.412Z,29.38
2023-02-12T20:11:31.947Z,31.77
2023-02-12T20:13:59.621Z,31.15
2023-02-12T20:16:31.646Z,32.70
2023-02-12T20:19:02.387Z,29.85
2023-02-12T20:21:29.594Z,30.25
2023-02-12T20:23:57.684Z,30.42
2023-02-12T20:26:25.405Z,29.98
2023-02-12T20:28:52.854Z,29.35
2023-02-12T20:31:27.270Z,32.15
2023-02-12T20:33:56.331Z,28.80
2023-02-12T20:36:24.716Z,28.92
2023-02-12T20:38:56.848Z,30.38
2023-02-12T20:41:25.384Z,30.05
2023-02-12T20:43:52.868Z,27.95
2023-02-12T20:46:22.759Z,29.15
2023-02-12T20:48:50.274Z,28.90
2023-02-12T20:51:23.037Z,28.85
2023-02-12T20:53:51.604Z,28.02
2023-02-12T20:56:24.502Z,29.05
2023-02-12T20:58:52.516Z,29.13
2023-02-12T21:01:25.476Z,27.25
2023-02-12T21:03:56.148Z,27.63
2023-02-12T21:06:24.470Z,27.63
2023-02-12T21:08:51.827Z,28.25
2023-02-12T21:11:24.240Z,26.10
2023-02-12T21:13:59.199Z,26.65
2023-02-12T21:16:32.804Z,27.13
2023-02-12T21:19:00.607Z,27.58
2023-02-12T21:21:30.480Z,26.92
2023-02-12T21:23:59.784Z,26.52
2023-02-12T21:26:28.732Z,26.23
2023-02-12T21:28:58.202Z,25.27
2023-02-12T21:31:29.625Z,27.63
2023-02-12T21:33:58.454Z,29.38
2023-02-12T21:36:34.166Z,26.48
2023-02-12T21:39:01.594Z,27.42
2023-02-12T21:41:32.052Z,28.13
2023-02-12T21:44:08.228Z,28.60
2023-02-12T21:46:36.870Z,26.67
2023-02-12T21:49:05.851Z,29.45
2023-02-12T21:51:36.240Z,30.15
2023-02-12T21:54:09.229Z,27.58
2023-02-12T21:56:37.868Z,29.38
2023-02-12T21:59:05.096Z,28.67
2023-02-12T22:01:34.607Z,28.25
2023-02-12T22:04:06.042Z,28.30
2023-02-12T22:06:37.878Z,28.42
2023-02-12T22:09:09.804Z,28.83
2023-02-12T22:11:38.203Z,28.88
2023-02-12T22:14:07.442Z,29.33
2023-02-12T22:16:35.491Z,29.27
2023-02-12T22:19:03.712Z,30.83
2023-02-12T22:21:36.665Z,31.10
2023-02-12T22:24:05.841Z,29.90
2023-02-12T22:26:36.064Z,30.45
2023-02-12T22:29:06.509Z,30.52
2023-02-12T22:31:36.380Z,30.05
2023-02-12T22:34:11.534Z,31.88
2023-02-12T22:36:40.752Z,31.50
2023-02-12T22:39:08.062Z,32.42
2023-02-12T22:41:35.158Z,30.58
2023-02-12T22:44:05.015Z,29.73
2023-02-12T22:46:36.238Z,29.02
2023-02-12T22:49:03.889Z,30.25
2023-02-12T22:51:32.831Z,32.22
2023-02-12T22:54:00.546Z,29.98
2023-02-12T22:56:29.442Z,30.73
2023-02-12T22:58:58.594Z,30.40
2023-02-12T23:01:28.507Z,29.98
2023-02-12T23:03:56.089Z,30.17
2023-02-12T23:06:27.676Z,30.58
2023-02-12T23:09:01.826Z,31.80
2023-02-12T23:11:30.429Z,29.30
2023-02-12T23:14:00.547Z,32.70
2023-02-12T23:16:29.080Z,32.47
2023-02-12T23:18:58.792Z,30.50
2023-02-12T23:21:26.941Z,32.50
2023-02-12T23:23:56.150Z,32.80
2023-02-12T23:26:23.732Z,33.50
2023-02-12T23:28:51.308Z,34.20
2023-02-12T23:31:18.690Z,32.58
2023-02-12T23:33:45.927Z,34.20
2023-02-12T23:36:13.227Z,31.05
2023-02-12T23:38:40.563Z,33.22
2023-02-12T23:41:08.598Z,33.03
2023-02-12T23:43:35.932Z,31.52
2023-02-12T23:46:04.340Z,30.27
2023-02-12T23:48:31.588Z,32.80
2023-02-12T23:50:58.941Z,31.75
2023-02-12T23:53:26.329Z,32.80
2023-02-12T23:55:54.978Z,32.40
2023-02-12T23:58:22.188Z,33.22
